createdAt,value
2017-05-16T00:00:44.146Z,101669
2017-05-16T00:03:41.431Z,101657
2017-05-16T00:06:29.913Z,101653
2017-05-16T00:08:59.689Z,101660
2017-05-16T00:11:42.515Z,101651
2017-05-16T00:14:41.415Z,101642
2017-05-16T00:17:10.410Z,101639
2017-05-16T00:19:39.410Z,101643
2017-05-16T00:22:08.444Z,101649
2017-05-16T00:24:37.446Z,101644
2017-05-16T00:27:06.479Z,101646
2017-05-16T00:29:42.815Z,101643
2017-05-16T00:32:11.811Z,101636
2017-05-16T00:34:40.846Z,101644
2017-05-16T00:37:09.829Z,101635
2017-05-16T00:39:44.787Z,101642
2017-05-16T00:42:14.556Z,101644
2017-05-16T00:44:43.542Z,101648
2017-05-16T00:47:12.529Z,101647
2017-05-16T00:49:41.565Z,101661
2017-05-16T00:52:11.312Z,101666
2017-05-16T00:54:40.357Z,101675
2017-05-16T01:00:10.651Z,101671
2017-05-16T01:02:39.662Z,101680
2017-05-16T01:05:08.707Z,101678
2017-05-16T01:07:44.806Z,101676
2017-05-16T01:10:13.842Z,101681
2017-05-16T01:12:42.830Z,101673
2017-05-16T01:15:11.821Z,101672
2017-05-16T01:17:40.837Z,101663
2017-05-16T01:20:10.561Z,101667
2017-05-16T01:22:39.600Z,101667
2017-05-16T01:28:10.556Z,101647
2017-05-16T01:30:39.541Z,101641
2017-05-16T01:33:08.572Z,101637
2017-05-16T01:35:44.909Z,101630
2017-05-16T01:38:13.931Z,101640
2017-05-16T01:40:43.665Z,101645
2017-05-16T01:43:12.708Z,101643
2017-05-16T01:45:41.700Z,101650
2017-05-16T01:48:10.695Z,101655
2017-05-16T01:50:39.749Z,101653
2017-05-16T01:53:08.747Z,101641
2017-05-16T01:55:37.783Z,101653
2017-05-16T01:58:06.793Z,101652
2017-05-16T02:00:36.578Z,101644
2017-05-16T02:03:05.570Z,101640
2017-05-16T02:05:34.622Z,101633
2017-05-16T02:08:03.628Z,101629
2017-05-16T02:10:32.665Z,101632
2017-05-16T02:13:01.648Z,101645
2017-05-16T02:15:30.639Z,101641
2017-05-16T02:17:59.658Z,101627
2017-05-16T02:20:29.391Z,101627
2017-05-16T02:22:58.532Z,101628
2017-05-16T02:25:27.549Z,101622
2017-05-16T02:27:57.296Z,101627
2017-05-16T02:30:26.319Z,101627
2017-05-16T02:32:55.318Z,101634
2017-05-16T02:35:24.320Z,101638
2017-05-16T02:37:53.357Z,101643
2017-05-16T02:40:22.351Z,101644
2017-05-16T02:42:51.344Z,101641
2017-05-16T02:45:20.374Z,101662
2017-05-16T02:47:49.374Z,101661
2017-05-16T02:50:42.003Z,101660
2017-05-16T02:53:11.009Z,101638
2017-05-16T02:55:40.006Z,101659
2017-05-16T02:58:09.061Z,101658
2017-05-16T03:00:38.051Z,101658
2017-05-16T03:06:07.969Z,101648
2017-05-16T03:08:36.972Z,101659
2017-05-16T03:11:05.975Z,101655
2017-05-16T03:16:09.541Z,101644
2017-05-16T03:18:45.112Z,101643
2017-05-16T03:21:14.878Z,101644
2017-05-16T03:23:43.862Z,101636
2017-05-16T03:26:12.854Z,101640
2017-05-16T03:28:41.888Z,101653
2017-05-16T03:31:41.857Z,101648
2017-05-16T03:34:10.874Z,101654
2017-05-16T03:36:39.919Z,101664
2017-05-16T03:39:08.907Z,101673
2017-05-16T03:41:37.903Z,101673
2017-05-16T03:44:06.930Z,101667
2017-05-16T03:46:42.305Z,101665
2017-05-16T03:49:11.331Z,101668
2017-05-16T03:51:40.322Z,101685
2017-05-16T03:54:09.361Z,101693
2017-05-16T03:56:38.417Z,101689
2017-05-16T03:59:07.420Z,101689
2017-05-16T04:01:36.414Z,101684
2017-05-16T04:04:05.431Z,101695
2017-05-16T04:06:34.429Z,101697
2017-05-16T04:09:03.471Z,101697
2017-05-16T04:11:32.473Z,101697
2017-05-16T04:14:01.465Z,101688
2017-05-16T04:16:30.499Z,101689
2017-05-16T04:18:59.489Z,101682
2017-05-16T04:21:28.521Z,101685
2017-05-16T04:23:58.297Z,101675
2017-05-16T04:26:27.291Z,101687
2017-05-16T04:28:56.280Z,101682
2017-05-16T04:31:25.319Z,101694
2017-05-16T04:33:54.335Z,101683
2017-05-16T04:36:23.332Z,101688
2017-05-16T04:38:52.365Z,101691
2017-05-16T04:41:21.359Z,101692
2017-05-16T04:43:50.394Z,101707
2017-05-16T04:46:19.405Z,101701
2017-05-16T04:48:48.412Z,101704
2017-05-16T04:51:43.147Z,101711
2017-05-16T04:54:12.887Z,101707
2017-05-16T04:56:42.978Z,101703
2017-05-16T04:59:12.724Z,101699
2017-05-16T05:01:41.794Z,101701
2017-05-16T05:04:10.796Z,101693
2017-05-16T05:06:39.782Z,101694
2017-05-16T05:09:08.778Z,101698
2017-05-16T05:11:44.378Z,101703
2017-05-16T05:14:13.433Z,101715
2017-05-16T05:16:42.427Z,101708
2017-05-16T05:19:11.418Z,101713
2017-05-16T05:21:40.452Z,101718
2017-05-16T05:24:09.493Z,101711
2017-05-16T05:26:38.486Z,101715
2017-05-16T05:29:07.489Z,101720
2017-05-16T05:31:36.540Z,101714
2017-05-16T05:34:06.279Z,101706
2017-05-16T05:36:35.606Z,101713
2017-05-16T05:39:04.608Z,101719
2017-05-16T05:41:44.093Z,101724
2017-05-16T05:44:30.621Z,101709
2017-05-16T05:46:59.660Z,101717
2017-05-16T05:49:28.668Z,101711
2017-05-16T05:51:58.409Z,101714
2017-05-16T05:54:27.457Z,101709
2017-05-16T06:02:59.656Z,101713
2017-05-16T06:05:28.698Z,101712
2017-05-16T06:07:57.724Z,101726
2017-05-16T06:10:26.725Z,101726
2017-05-16T06:12:55.808Z,101715
2017-05-16T06:15:44.688Z,101715
2017-05-16T06:18:41.886Z,101716
2017-05-16T06:24:41.303Z,101730
2017-05-16T06:30:42.716Z,101737
2017-05-16T06:33:11.751Z,101727
2017-05-16T06:35:44.357Z,101729
2017-05-16T06:38:13.402Z,101736
2017-05-16T06:40:43.610Z,101744
2017-05-16T06:43:42.862Z,101745
2017-05-16T06:49:05.183Z,101747
2017-05-16T06:51:44.068Z,101748
2017-05-16T06:54:43.005Z,101744
2017-05-16T06:57:41.656Z,101741
2017-05-16T07:00:10.727Z,101750
2017-05-16T07:02:43.426Z,101741
2017-05-16T07:07:57.411Z,101740
2017-05-16T07:10:26.449Z,101745
2017-05-16T07:12:56.209Z,101748
2017-05-16T07:15:42.231Z,101740
2017-05-16T07:21:42.714Z,101745
2017-05-16T07:24:41.319Z,101740
2017-05-16T07:27:10.366Z,101740
2017-05-16T07:29:39.366Z,101740
2017-05-16T07:32:15.556Z,101749
2017-05-16T07:34:44.546Z,101747
2017-05-16T07:37:13.531Z,101748
2017-05-16T07:39:42.566Z,101749
2017-05-16T07:42:11.573Z,101749
2017-05-16T07:44:44.286Z,101753
2017-05-16T07:47:14.036Z,101757
2017-05-16T07:49:43.040Z,101755
2017-05-16T07:52:12.063Z,101754
2017-05-16T07:54:41.105Z,101759
2017-05-16T07:57:10.098Z,101752
2017-05-16T07:59:41.343Z,101755
2017-05-16T08:02:10.373Z,101755
2017-05-16T08:04:39.383Z,101752
2017-05-16T08:07:09.117Z,101747
2017-05-16T08:09:38.168Z,101756
2017-05-16T08:15:08.612Z,101763
2017-05-16T08:17:37.605Z,101759
2017-05-16T08:22:56.892Z,101766
2017-05-16T08:25:25.902Z,101757
2017-05-16T08:27:54.904Z,101750
2017-05-16T08:30:24.685Z,101756
2017-05-16T08:32:53.678Z,101760
2017-05-16T08:35:22.718Z,101750
2017-05-16T08:37:51.768Z,101766
2017-05-16T08:40:20.771Z,101761
2017-05-16T08:42:49.770Z,101762
2017-05-16T08:45:19.573Z,101756
2017-05-16T08:50:49.495Z,101757
2017-05-16T08:53:42.498Z,101757
2017-05-16T08:56:31.370Z,101751
2017-05-16T08:59:00.401Z,101751
2017-05-16T09:01:43.063Z,101745
2017-05-16T09:04:12.061Z,101749
2017-05-16T09:06:41.062Z,101745
2017-05-16T09:09:10.090Z,101740
2017-05-16T09:11:39.084Z,101740
2017-05-16T09:14:08.122Z,101740
2017-05-16T09:16:37.107Z,101732
2017-05-16T09:19:06.873Z,101734
2017-05-16T09:21:42.570Z,101728
2017-05-16T09:24:11.602Z,101732
2017-05-16T09:26:40.599Z,101733
2017-05-16T09:29:09.605Z,101729
2017-05-16T09:31:38.661Z,101730
2017-05-16T09:34:07.655Z,101727
2017-05-16T09:36:40.230Z,101731
2017-05-16T09:39:09.233Z,101726
2017-05-16T09:41:38.232Z,101721
2017-05-16T09:46:58.916Z,101713
2017-05-16T09:49:27.902Z,101723
2017-05-16T09:51:57.669Z,101732
2017-05-16T09:54:26.721Z,101729
2017-05-16T09:56:55.721Z,101731
2017-05-16T09:59:44.039Z,101724
2017-05-16T10:02:13.805Z,101733
2017-05-16T10:04:43.051Z,101728
2017-05-16T10:07:12.796Z,101729
2017-05-16T10:09:41.781Z,101727
2017-05-16T10:12:10.834Z,101722
2017-05-16T10:14:40.565Z,101724
2017-05-16T10:17:09.558Z,101715
2017-05-16T10:19:45.112Z,101720
2017-05-16T10:25:01.561Z,101722
2017-05-16T10:27:30.577Z,101723
2017-05-16T10:29:59.606Z,101723
2017-05-16T10:32:28.605Z,101712
2017-05-16T10:34:57.624Z,101717
2017-05-16T10:37:26.618Z,101713
2017-05-16T10:39:55.619Z,101707
2017-05-16T10:42:43.906Z,101711
2017-05-16T10:45:13.630Z,101711
2017-05-16T10:47:43.084Z,101713
2017-05-16T10:50:12.085Z,101706
2017-05-16T10:52:41.087Z,101714
2017-05-16T10:55:10.134Z,101715
2017-05-16T10:57:39.127Z,101722
2017-05-16T11:00:08.167Z,101713
2017-05-16T11:02:43.768Z,101716
2017-05-16T11:05:12.826Z,101722
2017-05-16T11:07:42.554Z,101710
2017-05-16T11:10:11.553Z,101716
2017-05-16T11:12:40.597Z,101710
2017-05-16T11:15:09.635Z,101717
2017-05-16T11:17:38.628Z,101712
2017-05-16T11:20:07.682Z,101714
2017-05-16T11:22:36.664Z,101711
2017-05-16T11:25:05.686Z,101709
2017-05-16T11:27:34.715Z,101715
2017-05-16T11:30:03.733Z,101708
2017-05-16T11:32:32.737Z,101708
2017-05-16T11:35:01.773Z,101705
2017-05-16T11:37:43.443Z,101701
2017-05-16T11:40:13.214Z,101705
2017-05-16T11:42:43.232Z,101706
2017-05-16T11:45:12.264Z,101704
2017-05-16T11:47:42.064Z,101705
2017-05-16T11:50:11.052Z,101705
2017-05-16T11:52:40.035Z,101706
2017-05-16T11:55:09.057Z,101704
2017-05-16T11:57:38.825Z,101701
2017-05-16T12:00:07.855Z,101703
2017-05-16T12:02:43.446Z,101687
2017-05-16T12:05:42.201Z,101684
2017-05-16T12:11:11.882Z,101690
2017-05-16T12:13:40.869Z,101684
2017-05-16T12:16:09.873Z,101683
2017-05-16T12:18:44.889Z,101680
2017-05-16T12:21:13.879Z,101685
2017-05-16T12:23:43.273Z,101682
2017-05-16T12:26:32.236Z,101683
2017-05-16T12:29:01.236Z,101683
2017-05-16T12:31:30.274Z,101682
2017-05-16T12:34:00.033Z,101681
2017-05-16T12:36:32.869Z,101682
2017-05-16T12:39:02.662Z,101677
2017-05-16T12:41:38.017Z,101680
2017-05-16T12:46:45.802Z,101681
2017-05-16T12:49:14.864Z,101677
2017-05-16T12:51:43.879Z,101676
2017-05-16T12:54:42.586Z,101677
2017-05-16T12:57:11.579Z,101669
2017-05-16T12:59:40.600Z,101664
2017-05-16T13:02:10.373Z,101662
2017-05-16T13:04:39.389Z,101666
2017-05-16T13:07:08.374Z,101657
2017-05-16T13:09:37.407Z,101652
2017-05-16T13:12:06.399Z,101653
2017-05-16T13:14:43.650Z,101652
2017-05-16T13:17:12.642Z,101650
2017-05-16T13:19:43.057Z,101652
2017-05-16T13:24:51.534Z,101648
2017-05-16T13:27:20.537Z,101645
2017-05-16T13:29:49.524Z,101640
2017-05-16T13:32:44.223Z,101648
2017-05-16T13:35:13.207Z,101650
2017-05-16T13:37:42.244Z,101649
2017-05-16T13:40:41.645Z,101643
2017-05-16T13:48:50.578Z,101629
2017-05-16T13:51:19.637Z,101637
2017-05-16T13:53:49.404Z,101629
2017-05-16T13:56:31.506Z,101638
2017-05-16T13:59:00.523Z,101639
2017-05-16T14:01:42.669Z,101637
2017-05-16T14:06:50.192Z,101632
2017-05-16T14:09:19.270Z,101629
2017-05-16T14:11:48.263Z,101638
2017-05-16T14:14:43.636Z,101635
2017-05-16T14:17:42.379Z,101635
2017-05-16T14:20:11.438Z,101623
2017-05-16T14:22:44.444Z,101632
2017-05-16T14:25:13.489Z,101622
2017-05-16T14:27:42.477Z,101620
2017-05-16T14:30:11.533Z,101614
2017-05-16T14:32:44.253Z,101618
2017-05-16T14:35:13.249Z,101624
2017-05-16T14:37:43.239Z,101618
2017-05-16T14:42:50.657Z,101621
2017-05-16T14:45:19.661Z,101603
2017-05-16T14:47:48.663Z,101609
2017-05-16T14:50:31.751Z,101618
2017-05-16T14:56:01.734Z,101604
2017-05-16T14:58:44.093Z,101614
2017-05-16T15:01:13.128Z,101612
2017-05-16T15:03:42.122Z,101615
2017-05-16T15:06:11.878Z,101621
2017-05-16T15:08:44.302Z,101621
2017-05-16T15:11:37.361Z,101607
2017-05-16T15:14:07.140Z,101615
2017-05-16T15:16:43.483Z,101609
2017-05-16T15:19:12.504Z,101609
2017-05-16T15:21:42.820Z,101606
2017-05-16T15:24:11.822Z,101613
2017-05-16T15:26:40.859Z,101616
2017-05-16T15:32:10.959Z,101613
2017-05-16T15:34:43.661Z,101618
2017-05-16T15:37:13.431Z,101614
2017-05-16T15:39:43.119Z,101599
2017-05-16T15:42:42.481Z,101609
2017-05-16T15:45:12.206Z,101606
2017-05-16T15:47:45.101Z,101597
2017-05-16T15:56:06.075Z,101590
2017-05-16T15:58:43.425Z,101555
2017-05-16T16:01:12.457Z,101442
2017-05-16T16:03:41.495Z,101588
2017-05-16T16:06:31.205Z,101592
2017-05-16T16:09:00.185Z,101603
2017-05-16T16:11:29.221Z,101618
2017-05-16T16:13:58.231Z,101617
2017-05-16T16:16:43.951Z,101588
2017-05-16T16:19:12.940Z,101597
2017-05-16T16:21:41.927Z,101595
2017-05-16T16:24:11.688Z,101590
2017-05-16T16:26:40.723Z,101591
2017-05-16T16:29:10.444Z,101586
2017-05-16T16:31:43.890Z,101593
2017-05-16T16:40:13.138Z,101586
2017-05-16T16:42:45.147Z,101592
2017-05-16T16:45:38.010Z,101594
2017-05-16T16:48:07.004Z,101585
2017-05-16T16:50:43.193Z,101591
2017-05-16T16:53:42.658Z,101591
2017-05-16T16:59:42.113Z,101593
2017-05-16T17:08:26.653Z,101591
2017-05-16T17:13:56.472Z,101588
2017-05-16T17:16:45.193Z,101592
2017-05-16T17:19:14.230Z,101596
2017-05-16T17:21:43.251Z,101588
2017-05-16T17:27:20.744Z,101589
2017-05-16T17:32:51.354Z,101596
2017-05-16T17:35:20.335Z,101597
2017-05-16T17:37:49.328Z,101591
2017-05-16T17:40:44.174Z,101580
2017-05-16T17:43:13.909Z,101567
2017-05-16T17:45:42.936Z,101582
2017-05-16T17:48:11.983Z,101600
2017-05-16T17:50:45.164Z,101606
2017-05-16T17:53:14.945Z,101606
2017-05-16T17:55:44.018Z,101615
2017-05-16T17:58:33.538Z,101614
2017-05-16T18:03:48.573Z,101599
2017-05-16T18:06:17.568Z,101604
2017-05-16T18:08:46.563Z,101600
2017-05-16T18:11:15.600Z,101603
2017-05-16T18:13:45.321Z,101606
2017-05-16T18:16:15.125Z,101593
2017-05-16T18:18:44.876Z,101598
2017-05-16T18:21:13.918Z,101602
2017-05-16T18:23:42.902Z,101599
2017-05-16T18:26:11.888Z,101601
2017-05-16T18:29:34.479Z,101603
2017-05-16T18:32:04.363Z,101607
2017-05-16T18:34:44.653Z,101612
2017-05-16T18:37:44.500Z,101603
2017-05-16T19:17:55.719Z,101647
2017-05-16T19:20:25.956Z,101638
2017-05-16T19:22:57.444Z,101649
2017-05-16T19:25:53.261Z,101643
2017-05-16T19:28:33.075Z,101647
2017-05-16T19:34:13.990Z,101653
2017-05-16T19:39:53.636Z,101654
2017-05-16T19:42:53.206Z,101647
2017-05-16T19:45:52.439Z,101659
2017-05-16T19:48:51.879Z,101647
2017-05-16T19:54:52.898Z,101657
2017-05-16T19:57:52.245Z,101659
2017-05-16T20:03:24.638Z,101657
2017-05-16T20:05:55.425Z,101656
2017-05-16T20:08:26.178Z,101653
2017-05-16T20:10:56.092Z,101665
2017-05-16T20:13:27.036Z,101657
2017-05-16T20:15:56.957Z,101662
2017-05-16T20:18:26.927Z,101663
2017-05-16T20:20:57.644Z,101664
2017-05-16T20:23:29.034Z,101667
2017-05-16T20:25:59.549Z,101669
2017-05-16T20:28:29.535Z,101666
2017-05-16T20:31:00.154Z,101671
2017-05-16T20:33:30.117Z,101667
2017-05-16T20:36:00.033Z,101670
2017-05-16T20:38:29.949Z,101672
2017-05-16T20:41:00.790Z,101665
2017-05-16T20:43:31.442Z,101667
2017-05-16T20:46:01.313Z,101666
2017-05-16T20:48:31.186Z,101661
2017-05-16T20:51:01.128Z,101659
2017-05-16T20:53:31.002Z,101651
2017-05-16T20:56:00.872Z,101662
2017-05-16T20:58:30.782Z,101658
2017-05-16T21:01:00.655Z,101661
2017-05-16T21:03:30.552Z,101663
2017-05-16T21:06:00.426Z,101664
2017-05-16T21:08:30.308Z,101669
2017-05-16T21:11:00.191Z,101659
2017-05-16T21:13:30.106Z,101671
2017-05-16T21:15:59.981Z,101678
2017-05-16T21:18:29.895Z,101666
2017-05-16T21:21:00.018Z,101672
2017-05-16T21:23:29.962Z,101674
2017-05-16T21:25:59.889Z,101678
2017-05-16T21:28:29.783Z,101674
2017-05-16T21:30:59.706Z,101673
2017-05-16T21:33:29.596Z,101674
2017-05-16T21:35:59.524Z,101671
2017-05-16T21:38:29.436Z,101671
2017-05-16T21:40:59.332Z,101675
2017-05-16T21:43:29.287Z,101667
2017-05-16T21:45:59.186Z,101670
2017-05-16T21:48:29.124Z,101668
2017-05-16T21:50:59.025Z,101660
2017-05-16T21:53:28.920Z,101662
2017-05-16T21:55:58.846Z,101665
2017-05-16T21:58:28.729Z,101654
2017-05-16T22:00:58.651Z,101662
2017-05-16T22:03:52.459Z,101664
2017-05-16T22:06:22.381Z,101666
2017-05-16T22:08:52.260Z,101661
2017-05-16T22:11:23.888Z,101660
2017-05-16T22:13:53.759Z,101660
2017-05-16T22:16:23.696Z,101666
2017-05-16T22:18:54.307Z,101662
2017-05-16T22:21:24.281Z,101655
2017-05-16T22:23:54.162Z,101649
2017-05-16T22:26:24.087Z,101654
2017-05-16T22:28:53.967Z,101655
2017-05-16T22:31:24.139Z,101646
2017-05-16T22:33:54.019Z,101660
2017-05-16T22:36:24.693Z,101664
2017-05-16T22:38:54.581Z,101664
2017-05-16T22:41:24.451Z,101661
2017-05-16T22:43:54.371Z,101664
2017-05-16T22:46:25.003Z,101660
2017-05-16T22:48:54.915Z,101650
2017-05-16T22:51:24.808Z,101644
2017-05-16T22:53:54.729Z,101640
2017-05-16T22:56:24.592Z,101647
2017-05-16T22:58:54.457Z,101639
2017-05-16T23:01:24.374Z,101640
2017-05-16T23:03:54.254Z,101648
2017-05-16T23:06:24.186Z,101639
2017-05-16T23:08:54.066Z,101643
2017-05-16T23:11:23.989Z,101641
2017-05-16T23:13:53.874Z,101632
2017-05-16T23:16:23.794Z,101635
2017-05-16T23:18:53.661Z,101631
2017-05-16T23:21:23.706Z,101633
2017-05-16T23:23:54.364Z,101625
2017-05-16T23:26:24.688Z,101629
2017-05-16T23:28:54.604Z,101626
2017-05-16T23:31:24.481Z,101634
2017-05-16T23:33:54.367Z,101626
2017-05-16T23:36:24.287Z,101634
2017-05-16T23:38:54.168Z,101628
2017-05-16T23:41:24.102Z,101638
2017-05-16T23:43:54.002Z,101634
2017-05-16T23:46:23.943Z,101626
2017-05-16T23:48:53.831Z,101623
2017-05-16T23:51:23.748Z,101623
2017-05-16T23:53:53.638Z,101628
2017-05-16T23:56:23.513Z,101629
2017-05-16T23:58:53.435Z,101631
